Time;durP1;ratioP1;P1;durP2;ratioP2;P2;SDS_P1;SDS_P2;PMS_P1;PMS_P2;Temp;Humidity;BMP_temperature;BMP_pressure;BME280_temperature;BME280_humidity;BME280_pressure;Samples;Min_cycle;Max_cycle;Signal;HPM_P1;HPM_P2
2021/01/20 00:00:28;;;;;;;1.67;1.30;;;2.90;99.90;;;;;;5012955;28;20242;-69
2021/01/20 00:02:54;;;;;;;1.57;1.40;;;3.00;99.90;;;;;;5012852;28;20175;-69
2021/01/20 00:05:20;;;;;;;2.87;2.00;;;2.90;99.90;;;;;;5011270;28;20282;-68
2021/01/20 00:07:45;;;;;;;2.13;1.93;;;3.00;99.90;;;;;;5012583;28;20457;-68
2021/01/20 00:10:12;;;;;;;2.30;1.73;;;3.00;99.90;;;;;;5012913;28;20170;-68
2021/01/20 00:12:38;;;;;;;2.80;1.93;;;3.00;99.90;;;;;;5012773;28;20244;-68
2021/01/20 00:15:05;;;;;;;2.67;1.90;;;3.10;99.90;;;;;;5012625;28;20452;-68
2021/01/20 00:17:31;;;;;;;1.90;1.73;;;3.00;99.90;;;;;;5012140;28;20429;-68
2021/01/20 00:19:57;;;;;;;2.63;1.80;;;3.00;99.90;;;;;;5012332;28;20430;-68
2021/01/20 00:22:28;;;;;;;2.40;2.10;;;3.00;99.90;;;;;;5012162;28;20219;-68
2021/01/20 00:24:54;;;;;;;1.50;1.40;;;3.00;99.90;;;;;;5012161;28;20178;-69
2021/01/20 00:27:19;;;;;;;1.97;1.77;;;3.10;99.90;;;;;;5011717;28;20457;-68
2021/01/20 00:29:45;;;;;;;2.10;1.90;;;3.10;99.90;;;;;;5012071;28;20433;-68
2021/01/20 00:32:10;;;;;;;2.10;1.90;;;3.10;99.90;;;;;;5011928;28;20544;-68
2021/01/20 00:34:36;;;;;;;2.23;2.03;;;3.10;99.90;;;;;;5012444;28;20179;-67
2021/01/20 00:37:01;;;;;;;2.23;1.93;;;3.20;99.90;;;;;;5011637;28;20647;-68
2021/01/20 00:39:27;;;;;;;1.93;1.80;;;3.20;99.90;;;;;;5011994;28;20622;-68
2021/01/20 00:41:52;;;;;;;2.17;1.60;;;3.20;99.90;;;;;;5011656;28;20198;-67
2021/01/20 00:44:18;;;;;;;1.77;1.63;;;3.20;99.90;;;;;;5011719;28;20183;-68
2021/01/20 00:46:43;;;;;;;1.73;1.63;;;3.20;99.90;;;;;;5011742;28;20207;-67
2021/01/20 00:49:09;;;;;;;1.60;1.50;;;3.20;99.90;;;;;;5011587;28;20206;-68
2021/01/20 00:51:34;;;;;;;3.53;2.17;;;3.10;99.90;;;;;;5011543;28;20262;-67
2021/01/20 00:54:00;;;;;;;8.53;2.50;;;3.10;99.90;;;;;;5011449;28;20171;-68
2021/01/20 00:56:25;;;;;;;2.30;1.77;;;3.10;99.90;;;;;;5011438;28;20175;-68
2021/01/20 00:58:51;;;;;;;1.87;1.70;;;3.10;99.90;;;;;;5011202;28;20183;-68
2021/01/20 01:01:16;;;;;;;2.97;2.50;;;3.10;99.90;;;;;;5011287;28;20198;-68
2021/01/20 01:03:42;;;;;;;2.83;2.17;;;3.00;99.90;;;;;;5011189;28;20171;-68
2021/01/20 01:06:08;;;;;;;2.20;2.00;;;3.00;99.90;;;;;;5011064;28;20187;-68
2021/01/20 01:08:33;;;;;;;1.67;1.53;;;3.00;99.90;;;;;;5011358;28;20372;-68
2021/01/20 01:11:02;;;;;;;1.97;1.83;;;3.00;99.90;;;;;;5010944;28;20199;-68
2021/01/20 01:13:28;;;;;;;2.07;1.87;;;2.90;99.90;;;;;;5011523;28;20191;-68
2021/01/20 01:15:55;;;;;;;1.67;1.57;;;2.90;99.90;;;;;;5010571;28;20433;-68
2021/01/20 01:18:20;;;;;;;2.13;2.00;;;2.90;99.90;;;;;;5011123;28;20432;-68
2021/01/20 01:20:46;;;;;;;2.10;1.83;;;2.90;99.90;;;;;;5010682;28;20817;-68
2021/01/20 01:23:11;;;;;;;2.47;2.27;;;3.00;99.90;;;;;;5011155;28;20705;-67
2021/01/20 01:25:37;;;;;;;2.90;2.07;;;3.00;99.90;;;;;;5010182;28;20203;-68
2021/01/20 01:28:15;;;;;;;2.73;1.97;;;2.90;99.90;;;;;;5010746;28;20261;-68
2021/01/20 01:30:40;;;;;;;3.30;2.20;;;2.90;99.90;;;;;;5009863;28;20544;-68
2021/01/20 01:33:06;;;;;;;3.57;1.83;;;2.90;99.90;;;;;;5010871;28;20500;-68
2021/01/20 01:35:32;;;;;;;2.90;2.37;;;2.90;99.90;;;;;;5010620;28;20175;-67
2021/01/20 01:37:58;;;;;;;1.97;1.60;;;2.90;99.90;;;;;;5010611;28;20913;-68
2021/01/20 01:40:23;;;;;;;1.87;1.40;;;2.90;99.90;;;;;;5010564;28;20216;-69
2021/01/20 01:42:49;;;;;;;2.80;1.70;;;2.90;99.90;;;;;;4993086;28;20430;-68
2021/01/20 01:45:15;;;;;;;1.97;1.80;;;3.00;99.90;;;;;;5010496;28;20224;-68
2021/01/20 01:47:40;;;;;;;1.77;1.67;;;3.00;99.90;;;;;;5010600;28;20570;-68
2021/01/20 01:50:08;;;;;;;2.67;1.73;;;3.10;99.90;;;;;;5010688;28;20186;-68
2021/01/20 01:52:34;;;;;;;2.60;2.07;;;3.10;99.90;;;;;;5010411;28;20730;-68
2021/01/20 01:55:00;;;;;;;2.17;1.97;;;3.10;99.90;;;;;;5010900;28;21143;-68
2021/01/20 01:57:26;;;;;;;2.10;1.60;;;3.20;99.90;;;;;;5010576;28;20429;-68
2021/01/20 01:59:52;;;;;;;2.60;1.70;;;3.20;99.90;;;;;;5010681;28;20227;-68
2021/01/20 02:02:18;;;;;;;3.43;1.80;;;3.30;99.90;;;;;;5010457;28;20534;-68
2021/01/20 02:04:43;;;;;;;2.60;1.97;;;3.30;99.90;;;;;;5010675;28;20989;-67
2021/01/20 02:07:09;;;;;;;1.90;1.77;;;3.40;99.90;;;;;;5009817;28;20183;-68
2021/01/20 02:09:36;;;;;;;2.67;2.10;;;3.40;99.90;;;;;;5010686;28;20697;-70
2021/01/20 02:12:35;;;;;;;1.73;1.63;;;3.40;99.90;;;;;;5010366;28;20449;-68
2021/01/20 02:15:23;;;;;;;2.07;1.67;;;3.40;99.90;;;;;;4998017;28;20968;-68
2021/01/20 02:18:09;;;;;;;3.43;1.57;;;3.40;99.90;;;;;;5010333;28;20429;-67
2021/01/20 02:20:59;;;;;;;1.53;1.43;;;3.40;99.90;;;;;;5010170;28;20437;-67
2021/01/20 02:23:26;;;;;;;1.70;1.60;;;3.40;99.90;;;;;;5010253;28;20445;-71
2021/01/20 02:26:22;;;;;;;1.47;1.37;;;3.50;99.90;;;;;;5009916;28;20462;-68
2021/01/20 02:29:01;;;;;;;1.37;1.27;;;3.50;99.90;;;;;;5013809;28;20462;-68
2021/01/20 02:31:29;;;;;;;4.00;1.43;;;3.60;99.90;;;;;;5014288;28;20523;-67
2021/01/20 02:33:59;;;;;;;1.53;1.43;;;3.60;99.90;;;;;;5014484;28;20427;-68
2021/01/20 02:36:25;;;;;;;2.33;1.70;;;3.60;99.90;;;;;;5013355;28;20513;-68
2021/01/20 02:38:51;;;;;;;1.80;1.70;;;3.70;99.90;;;;;;5014027;28;20877;-68
2021/01/20 02:41:30;;;;;;;2.00;1.50;;;3.70;99.90;;;;;;4996093;28;20978;-67
2021/01/20 02:44:00;;;;;;;1.97;1.77;;;3.70;99.90;;;;;;5014425;28;20520;-67
2021/01/20 02:46:25;;;;;;;1.70;1.60;;;3.70;99.90;;;;;;5013675;28;20441;-68
2021/01/20 02:48:52;;;;;;;2.77;1.97;;;3.80;99.90;;;;;;5013839;28;20465;-67
2021/01/20 02:51:36;;;;;;;2.10;1.60;;;3.80;99.90;;;;;;5014074;28;20235;-69
2021/01/20 02:54:03;;;;;;;1.83;1.43;;;3.80;99.90;;;;;;5013841;28;21118;-68
2021/01/20 02:56:31;;;;;;;1.87;1.63;;;3.70;99.90;;;;;;5013259;28;20513;-67
2021/01/20 02:59:00;;;;;;;4.33;1.87;;;3.70;99.90;;;;;;5014038;28;20483;-68
2021/01/20 03:01:29;;;;;;;1.67;1.57;;;3.60;99.90;;;;;;5013867;28;20459;-67
2021/01/20 03:04:00;;;;;;;2.07;1.87;;;3.60;99.90;;;;;;5013667;28;20483;-67
2021/01/20 03:06:26;;;;;;;4.00;2.07;;;3.60;99.90;;;;;;5013533;28;20845;-68
2021/01/20 03:08:54;;;;;;;3.90;1.93;;;3.50;99.90;;;;;;5013397;28;20533;-68
2021/01/20 03:11:20;;;;;;;2.00;1.80;;;3.50;99.90;;;;;;5013672;28;20445;-68
2021/01/20 03:13:47;;;;;;;1.63;1.53;;;3.50;99.90;;;;;;5013443;28;20960;-68
2021/01/20 03:16:14;;;;;;;2.23;1.70;;;3.50;99.90;;;;;;5013190;28;20171;-68
2021/01/20 03:18:40;;;;;;;2.37;2.17;;;3.50;99.90;;;;;;5013483;28;20434;-68
2021/01/20 03:21:05;;;;;;;2.27;2.10;;;3.50;99.90;;;;;;5013064;28;21014;-68
2021/01/20 03:23:31;;;;;;;2.50;1.93;;;3.50;99.90;;;;;;5013319;28;20194;-67
2021/01/20 03:25:56;;;;;;;4.03;2.50;;;3.50;99.90;;;;;;5013006;28;20184;-67
2021/01/20 03:28:23;;;;;;;2.17;1.97;;;3.50;99.90;;;;;;5009577;28;20300;-68
2021/01/20 03:30:51;;;;;;;2.00;1.90;;;3.50;99.90;;;;;;5013019;28;20223;-68
2021/01/20 03:33:16;;;;;;;3.40;2.03;;;3.50;99.90;;;;;;5013046;28;20444;-69
2021/01/20 03:35:42;;;;;;;2.30;1.90;;;3.40;99.90;;;;;;5012760;28;20433;-68
2021/01/20 03:38:08;;;;;;;3.13;2.07;;;3.40;99.90;;;;;;5013242;28;20701;-68
2021/01/20 03:40:34;;;;;;;2.63;2.40;;;3.40;99.90;;;;;;5012899;28;20183;-68
2021/01/20 03:43:00;;;;;;;3.07;2.60;;;3.30;99.90;;;;;;5012991;28;20525;-69
2021/01/20 03:45:25;;;;;;;2.17;1.97;;;3.30;99.90;;;;;;5013060;28;20896;-68
2021/01/20 03:47:51;;;;;;;2.70;2.40;;;3.20;99.90;;;;;;5012756;28;20276;-68
2021/01/20 03:50:16;;;;;;;4.53;2.10;;;3.20;99.90;;;;;;5012406;28;20177;-69
2021/01/20 03:52:42;;;;;;;2.57;2.37;;;3.20;99.90;;;;;;5012925;28;20194;-68
2021/01/20 03:55:08;;;;;;;4.60;2.57;;;3.10;99.90;;;;;;5013120;28;20175;-68
2021/01/20 03:57:33;;;;;;;3.07;2.00;;;3.10;99.90;;;;;;5012402;28;20187;-68
2021/01/20 03:59:59;;;;;;;2.50;2.30;;;3.10;99.90;;;;;;5012263;28;20452;-69
2021/01/20 04:02:24;;;;;;;1.90;1.80;;;3.10;99.90;;;;;;5012359;28;20214;-68
2021/01/20 04:04:50;;;;;;;2.03;1.57;;;3.10;99.90;;;;;;5012351;28;20178;-68
2021/01/20 04:07:15;;;;;;;2.30;2.10;;;3.10;99.90;;;;;;5011920;28;20187;-69
2021/01/20 04:09:41;;;;;;;3.10;2.10;;;3.20;99.90;;;;;;5012479;28;20669;-70
2021/01/20 04:12:07;;;;;;;2.43;1.77;;;3.20;99.90;;;;;;5012395;28;20207;-68
2021/01/20 04:14:32;;;;;;;3.80;2.83;;;3.20;99.90;;;;;;5012707;28;20175;-68
2021/01/20 04:16:58;;;;;;;2.13;1.93;;;3.20;99.90;;;;;;5012143;28;20437;-68
2021/01/20 04:19:23;;;;;;;2.53;1.70;;;3.20;99.90;;;;;;5012540;28;20558;-69
2021/01/20 04:21:49;;;;;;;2.20;1.70;;;3.30;99.90;;;;;;5012134;28;20218;-68
2021/01/20 04:24:16;;;;;;;3.93;2.10;;;3.30;99.90;;;;;;4994974;28;20266;-68
2021/01/20 04:26:43;;;;;;;3.80;2.30;;;3.30;99.90;;;;;;5012194;28;20190;-70
2021/01/20 04:29:09;;;;;;;2.47;2.27;;;3.30;99.90;;;;;;5012246;28;20519;-68
2021/01/20 04:31:34;;;;;;;1.50;1.40;;;3.30;99.90;;;;;;5011917;28;20446;-68
2021/01/20 04:34:00;;;;;;;1.60;1.50;;;3.40;99.90;;;;;;5011824;28;20175;-71
2021/01/20 04:36:25;;;;;;;2.30;1.80;;;3.40;99.90;;;;;;5011580;28;20590;-67
2021/01/20 04:38:51;;;;;;;2.20;1.30;;;3.50;99.90;;;;;;5011703;28;20183;-68
2021/01/20 04:41:17;;;;;;;2.10;1.87;;;3.50;99.90;;;;;;5012016;28;20203;-68
2021/01/20 04:43:43;;;;;;;2.10;1.23;;;3.60;99.90;;;;;;5011842;28;20952;-68
2021/01/20 04:46:09;;;;;;;1.97;1.77;;;3.60;99.90;;;;;;5011379;28;20179;-68
2021/01/20 04:48:35;;;;;;;2.47;1.63;;;3.70;99.90;;;;;;5011487;28;20454;-68
2021/01/20 04:51:06;;;;;;;1.43;1.30;;;3.70;99.90;;;;;;5011089;28;20468;-67
2021/01/20 04:53:33;;;;;;;3.83;1.90;;;3.80;99.90;;;;;;5012013;28;20445;-69
2021/01/20 04:56:07;;;;;;;2.37;1.40;;;3.80;99.90;;;;;;5011396;28;20430;-70
2021/01/20 04:58:33;;;;;;;3.50;1.73;;;3.90;99.90;;;;;;5011485;28;20458;-68
2021/01/20 05:00:58;;;;;;;2.00;1.60;;;3.90;99.90;;;;;;5011205;28;20450;-68
2021/01/20 05:03:24;;;;;;;1.70;1.60;;;3.90;99.90;;;;;;5010973;28;20194;-69
2021/01/20 05:05:51;;;;;;;1.73;1.30;;;3.90;99.90;;;;;;5011043;28;20573;-68
2021/01/20 05:08:17;;;;;;;2.20;1.70;;;3.90;99.90;;;;;;5011301;28;20732;-68
2021/01/20 05:10:43;;;;;;;1.93;1.70;;;3.90;99.90;;;;;;5011145;28;20441;-68
2021/01/20 05:13:26;;;;;;;1.73;1.63;;;4.00;99.90;;;;;;5011030;28;20167;-69
2021/01/20 05:15:52;;;;;;;1.77;1.60;;;4.00;99.90;;;;;;5010593;28;20275;-70
2021/01/20 05:18:17;;;;;;;2.90;1.70;;;4.00;99.90;;;;;;5011334;28;20479;-68
2021/01/20 05:20:43;;;;;;;2.50;1.60;;;4.00;99.90;;;;;;5010955;28;20259;-68
2021/01/20 05:23:10;;;;;;;2.00;1.80;;;4.00;99.90;;;;;;5010944;28;20206;-68
2021/01/20 05:25:44;;;;;;;4.50;1.33;;;4.00;99.90;;;;;;5010273;28;20971;-70
2021/01/20 05:28:25;;;;;;;1.80;1.70;;;4.00;99.90;;;;;;5010719;28;20497;-68
2021/01/20 05:30:57;;;;;;;1.43;1.33;;;4.00;99.90;;;;;;5010646;28;20995;-68
2021/01/20 05:33:28;;;;;;;1.83;1.63;;;4.00;99.90;;;;;;5011001;28;20437;-68
2021/01/20 05:36:06;;;;;;;1.77;1.60;;;4.10;99.90;;;;;;5010281;28;20429;-68
2021/01/20 05:38:37;;;;;;;1.53;1.43;;;4.10;99.90;;;;;;5002911;28;20438;-69
2021/01/20 05:41:18;;;;;;;6.63;2.30;;;4.10;99.90;;;;;;5010588;28;21014;-69
2021/01/20 05:43:43;;;;;;;6.27;1.73;;;4.10;99.90;;;;;;5006940;28;20430;-69
2021/01/20 05:46:12;;;;;;;2.10;1.73;;;4.10;99.90;;;;;;5010241;28;20456;-69
2021/01/20 05:48:48;;;;;;;2.20;2.00;;;4.10;99.90;;;;;;5010708;28;20210;-68
2021/01/20 05:51:14;;;;;;;2.07;1.67;;;4.10;99.90;;;;;;5010377;28;20458;-68
2021/01/20 05:53:49;;;;;;;2.27;2.07;;;4.10;99.90;;;;;;5010406;28;20487;-68
2021/01/20 05:56:15;;;;;;;2.20;2.10;;;4.10;99.90;;;;;;5010061;28;20440;-69
2021/01/20 05:58:41;;;;;;;5.03;2.10;;;4.10;99.90;;;;;;5010331;28;20954;-69
2021/01/20 06:01:11;;;;;;;3.60;3.30;;;4.10;99.90;;;;;;5009870;28;20504;-69
2021/01/20 06:03:37;;;;;;;3.00;2.80;;;4.10;99.90;;;;;;5009297;28;20441;-68
2021/01/20 06:06:04;;;;;;;4.67;2.47;;;4.10;99.90;;;;;;5010153;28;20441;-68
2021/01/20 06:08:32;;;;;;;2.73;2.37;;;4.10;99.90;;;;;;5010203;28;20457;-68
2021/01/20 06:10:58;;;;;;;4.20;1.97;;;4.10;99.90;;;;;;5010267;28;20482;-68
2021/01/20 06:13:24;;;;;;;3.30;1.77;;;4.10;99.90;;;;;;5010361;28;20426;-68
2021/01/20 06:15:56;;;;;;;3.67;1.97;;;4.10;99.90;;;;;;5009937;28;20429;-69
2021/01/20 06:18:31;;;;;;;2.50;1.97;;;4.10;99.90;;;;;;5010553;28;20859;-68
2021/01/20 06:20:57;;;;;;;4.90;1.87;;;4.10;99.90;;;;;;5010204;28;20518;-68
2021/01/20 06:23:25;;;;;;;3.33;2.30;;;4.10;99.90;;;;;;5010734;28;20524;-68
2021/01/20 06:26:01;;;;;;;2.47;2.10;;;4.10;99.90;;;;;;5009784;28;20202;-68
2021/01/20 06:28:27;;;;;;;2.47;2.27;;;4.20;99.90;;;;;;5010594;28;20527;-68
2021/01/20 06:30:55;;;;;;;3.50;2.10;;;4.20;99.90;;;;;;5010433;28;20449;-68
2021/01/20 06:33:21;;;;;;;2.80;2.00;;;4.20;99.90;;;;;;5010805;28;20505;-68
2021/01/20 06:35:51;;;;;;;3.00;2.20;;;4.20;99.90;;;;;;5010141;28;20436;-68
2021/01/20 06:38:38;;;;;;;3.67;2.17;;;4.20;99.90;;;;;;5010375;28;20434;-68
2021/01/20 06:41:07;;;;;;;2.57;2.33;;;4.20;99.90;;;;;;5009640;28;20464;-68
2021/01/20 06:43:46;;;;;;;2.67;1.97;;;4.20;99.90;;;;;;5010171;28;20516;-68
2021/01/20 06:46:18;;;;;;;2.70;2.10;;;4.10;99.90;;;;;;5009823;28;20437;-67
2021/01/20 06:48:56;;;;;;;6.27;2.70;;;4.10;99.90;;;;;;5009705;28;20469;-67
2021/01/20 06:51:34;;;;;;;2.53;2.27;;;4.20;99.90;;;;;;5009479;28;20865;-67
2021/01/20 06:56:33;;;;;;;5.87;2.57;;;4.30;99.90;;;;;;5009252;28;20426;-66
2021/01/20 06:59:30;;;;;;;4.43;2.20;;;4.40;99.90;;;;;;5010132;28;20267;-68
2021/01/20 07:02:01;;;;;;;7.67;2.70;;;4.60;99.90;;;;;;4997665;28;20468;-68
2021/01/20 07:04:36;;;;;;;2.30;2.10;;;4.60;99.90;;;;;;5003914;28;20452;-67
2021/01/20 07:07:02;;;;;;;9.47;2.40;;;4.60;99.90;;;;;;5009540;28;20452;-67
2021/01/20 07:09:51;;;;;;;2.27;2.07;;;4.60;99.90;;;;;;5005856;28;20515;-66
2021/01/20 07:12:21;;;;;;;4.40;2.10;;;4.60;99.90;;;;;;4993897;28;20458;-66
2021/01/20 07:14:48;;;;;;;4.10;2.00;;;4.50;99.90;;;;;;5004122;28;21082;-67
2021/01/20 07:17:15;;;;;;;7.13;2.73;;;4.50;99.90;;;;;;5011382;28;20446;-66
2021/01/20 07:19:43;;;;;;;3.43;2.20;;;4.60;99.90;;;;;;5012884;28;20433;-68
2021/01/20 07:22:10;;;;;;;3.70;2.10;;;4.60;99.90;;;;;;5011853;28;20480;-69
2021/01/20 07:24:35;;;;;;;3.63;2.23;;;4.50;99.90;;;;;;5011905;28;20429;-68
2021/01/20 07:27:08;;;;;;;3.70;2.30;;;4.50;99.90;;;;;;5012234;28;20434;-68
2021/01/20 07:29:35;;;;;;;4.97;2.40;;;4.50;99.90;;;;;;5012620;28;20637;-67
2021/01/20 07:32:02;;;;;;;3.57;2.63;;;4.50;99.90;;;;;;5011646;28;20457;-70
2021/01/20 07:34:39;;;;;;;4.20;2.43;;;4.40;99.90;;;;;;5002476;28;20428;-67
2021/01/20 07:37:11;;;;;;;3.10;2.30;;;4.40;99.90;;;;;;4983134;28;21255;-70
2021/01/20 07:39:38;;;;;;;3.37;2.10;;;4.40;99.90;;;;;;5010474;28;20430;-66
2021/01/20 07:42:07;;;;;;;4.90;2.60;;;4.50;99.90;;;;;;5012307;28;20468;-69
2021/01/20 07:44:34;;;;;;;2.00;1.80;;;4.50;99.90;;;;;;5013088;28;20429;-68
2021/01/20 07:47:04;;;;;;;2.63;1.63;;;4.50;99.90;;;;;;5011959;28;20440;-69
2021/01/20 07:49:31;;;;;;;2.77;2.47;;;4.50;99.90;;;;;;5000646;28;20984;-69
2021/01/20 07:52:10;;;;;;;3.57;2.70;;;4.50;99.90;;;;;;5012464;28;20472;-69
2021/01/20 07:54:39;;;;;;;2.70;2.40;;;4.50;99.90;;;;;;5012469;28;20434;-69
2021/01/20 07:57:06;;;;;;;4.63;2.67;;;4.40;99.90;;;;;;5012145;28;20425;-70
2021/01/20 07:59:32;;;;;;;4.13;2.23;;;4.40;99.90;;;;;;5004530;28;20545;-68
2021/01/20 08:02:12;;;;;;;2.77;2.53;;;4.40;99.90;;;;;;5008925;28;20496;-69
2021/01/20 08:04:42;;;;;;;3.40;2.67;;;4.40;99.90;;;;;;5009468;28;20479;-70
2021/01/20 08:07:09;;;;;;;3.07;2.00;;;4.40;99.90;;;;;;5008837;28;20444;-69
2021/01/20 08:09:39;;;;;;;5.27;2.80;;;4.40;99.90;;;;;;5009070;28;20465;-69
2021/01/20 08:12:08;;;;;;;2.80;2.23;;;4.40;99.90;;;;;;5008493;28;20454;-68
2021/01/20 08:14:36;;;;;;;2.20;1.90;;;4.40;99.90;;;;;;5007370;28;20440;-69
2021/01/20 08:17:05;;;;;;;3.23;2.60;;;4.40;99.90;;;;;;5008015;28;20433;-70
2021/01/20 08:19:34;;;;;;;3.87;3.00;;;4.40;99.90;;;;;;5008180;28;20440;-69
2021/01/20 08:22:06;;;;;;;3.33;2.77;;;4.40;99.90;;;;;;4991288;28;20485;-69
2021/01/20 08:24:33;;;;;;;3.47;2.63;;;4.40;99.90;;;;;;5007478;28;20448;-68
2021/01/20 08:27:00;;;;;;;5.60;2.97;;;4.40;99.90;;;;;;5007832;28;20438;-69
2021/01/20 08:29:27;;;;;;;7.67;3.27;;;4.30;99.90;;;;;;5009163;28;20461;-71
2021/01/20 08:32:12;;;;;;;3.53;2.90;;;4.30;99.90;;;;;;5008776;28;20453;-69
2021/01/20 08:34:38;;;;;;;3.70;2.77;;;4.40;99.90;;;;;;5008840;28;20438;-70
2021/01/20 08:37:09;;;;;;;2.50;2.30;;;4.40;99.90;;;;;;5008200;28;20503;-68
2021/01/20 08:39:37;;;;;;;3.63;3.03;;;4.40;99.90;;;;;;5006601;28;20980;-69
2021/01/20 08:42:23;;;;;;;4.70;3.40;;;4.50;99.90;;;;;;5008841;28;21091;-70
2021/01/20 08:45:11;;;;;;;5.90;2.73;;;4.50;99.90;;;;;;5008578;28;20438;-69
2021/01/20 08:47:59;;;;;;;5.80;3.80;;;4.50;99.90;;;;;;5008352;28;20449;-69
2021/01/20 08:50:28;;;;;;;4.50;3.50;;;4.60;99.90;;;;;;5008435;28;20437;-70
2021/01/20 08:52:56;;;;;;;3.87;3.13;;;4.60;99.90;;;;;;4990534;28;20501;-69
2021/01/20 08:55:27;;;;;;;3.60;3.17;;;4.70;99.90;;;;;;5007475;28;20437;-70
2021/01/20 08:58:19;;;;;;;4.60;3.00;;;4.80;99.90;;;;;;5008099;28;20480;-70
2021/01/20 09:00:49;;;;;;;3.03;2.50;;;4.90;99.90;;;;;;5005080;28;20466;-70
2021/01/20 09:03:17;;;;;;;3.17;2.53;;;4.90;99.90;;;;;;5008075;28;20512;-70
2021/01/20 09:05:44;;;;;;;4.20;2.63;;;5.10;99.90;;;;;;5007423;28;20452;-69
2021/01/20 09:08:10;;;;;;;2.67;2.10;;;5.10;99.90;;;;;;5007919;28;20934;-69
2021/01/20 09:10:36;;;;;;;4.27;2.30;;;5.20;99.90;;;;;;5008193;28;20525;-68
2021/01/20 09:13:02;;;;;;;3.30;2.80;;;5.20;99.90;;;;;;5007786;28;20976;-68
2021/01/20 09:15:28;;;;;;;2.87;2.20;;;5.10;99.90;;;;;;5007583;28;20979;-68
2021/01/20 09:17:54;;;;;;;5.80;2.40;;;5.20;99.90;;;;;;5008144;28;20434;-70
2021/01/20 09:20:19;;;;;;;2.47;1.83;;;5.20;99.90;;;;;;5007951;28;20270;-69
2021/01/20 09:22:45;;;;;;;3.60;2.13;;;5.20;99.90;;;;;;5007628;28;20230;-69
2021/01/20 09:25:11;;;;;;;3.47;3.13;;;5.20;99.90;;;;;;5007691;28;20262;-69
2021/01/20 09:27:36;;;;;;;4.43;3.33;;;5.30;99.90;;;;;;5007804;28;20187;-69
2021/01/20 09:30:03;;;;;;;2.77;2.30;;;5.30;99.90;;;;;;4989947;28;20488;-69
2021/01/20 09:32:29;;;;;;;3.13;2.53;;;5.30;99.90;;;;;;5007648;28;20203;-69
2021/01/20 09:34:54;;;;;;;3.47;2.00;;;5.30;99.90;;;;;;5007590;28;20456;-70
2021/01/20 09:37:20;;;;;;;3.93;2.83;;;5.30;99.90;;;;;;5006916;28;20194;-69
2021/01/20 09:39:45;;;;;;;3.33;2.20;;;5.40;99.90;;;;;;5005562;28;20189;-69
2021/01/20 09:42:11;;;;;;;2.93;2.63;;;5.50;99.90;;;;;;5007182;28;20206;-69
2021/01/20 09:44:36;;;;;;;2.67;2.20;;;5.50;99.90;;;;;;5007075;28;20697;-70
2021/01/20 09:47:02;;;;;;;2.87;2.07;;;5.50;99.90;;;;;;5007269;28;20602;-69
2021/01/20 09:49:27;;;;;;;2.70;2.27;;;5.60;99.90;;;;;;5007028;28;20202;-67
2021/01/20 09:51:53;;;;;;;3.63;2.70;;;5.70;99.90;;;;;;5007310;28;20200;-70
2021/01/20 09:54:18;;;;;;;2.90;2.70;;;5.70;99.90;;;;;;5006974;28;20662;-69
2021/01/20 09:56:44;;;;;;;11.40;3.20;;;5.70;99.90;;;;;;5006971;28;20183;-69
2021/01/20 09:59:09;;;;;;;3.50;3.10;;;5.70;99.90;;;;;;5006524;28;20190;-69
2021/01/20 10:01:35;;;;;;;3.47;2.47;;;5.80;99.90;;;;;;5006370;28;20202;-69
2021/01/20 10:04:01;;;;;;;3.20;2.33;;;5.70;99.90;;;;;;5007189;28;20197;-69
2021/01/20 10:06:27;;;;;;;5.20;3.07;;;5.60;99.90;;;;;;5005717;28;20453;-68
2021/01/20 10:08:52;;;;;;;4.70;2.33;;;5.70;99.90;;;;;;4989135;28;20214;-68
2021/01/20 10:11:18;;;;;;;2.93;2.60;;;5.60;99.90;;;;;;5006946;28;20209;-69
2021/01/20 10:13:43;;;;;;;3.40;2.40;;;5.70;99.90;;;;;;5006838;28;20202;-68
2021/01/20 10:16:09;;;;;;;2.80;2.37;;;5.80;99.90;;;;;;5006435;28;20179;-67
2021/01/20 10:18:34;;;;;;;3.50;2.77;;;5.90;99.90;;;;;;5007193;28;20193;-68
2021/01/20 10:21:00;;;;;;;2.70;2.50;;;6.00;99.90;;;;;;5007221;28;20253;-69
2021/01/20 10:23:25;;;;;;;3.47;2.50;;;6.20;99.90;;;;;;5006920;28;20182;-68
2021/01/20 10:25:54;;;;;;;2.97;2.77;;;6.20;99.90;;;;;;5006524;28;20252;-67
2021/01/20 10:28:20;;;;;;;3.83;3.47;;;6.30;99.90;;;;;;5006783;28;20202;-69
2021/01/20 10:30:45;;;;;;;2.90;2.70;;;6.50;99.90;;;;;;5005441;28;21325;-67
2021/01/20 10:33:11;;;;;;;8.23;3.27;;;6.50;99.90;;;;;;5006119;28;20175;-68
2021/01/20 10:35:36;;;;;;;7.07;3.80;;;6.70;99.90;;;;;;5006220;28;20197;-68
2021/01/20 10:38:02;;;;;;;5.57;4.00;;;6.90;99.90;;;;;;5006332;28;20567;-69
2021/01/20 10:40:27;;;;;;;4.27;3.73;;;7.20;99.90;;;;;;5006115;28;20360;-67
2021/01/20 10:42:53;;;;;;;6.37;3.57;;;7.30;99.90;;;;;;5006921;28;20187;-68
2021/01/20 10:45:19;;;;;;;6.33;3.50;;;7.30;99.90;;;;;;5005664;28;20191;-67
2021/01/20 10:47:45;;;;;;;5.87;4.43;;;7.30;99.90;;;;;;5006624;28;20186;-69
2021/01/20 10:50:11;;;;;;;7.37;3.67;;;7.20;99.90;;;;;;5010516;28;20182;-68
2021/01/20 10:52:36;;;;;;;4.37;3.97;;;7.00;99.90;;;;;;5010355;28;20206;-70
2021/01/20 10:55:02;;;;;;;8.10;3.67;;;7.20;99.90;;;;;;5010971;28;20441;-68
2021/01/20 10:57:28;;;;;;;4.77;4.03;;;7.30;99.90;;;;;;5010120;28;20167;-68
2021/01/20 10:59:55;;;;;;;9.30;3.37;;;7.20;99.90;;;;;;5010808;28;20183;-69
2021/01/20 11:02:20;;;;;;;5.13;3.20;;;7.10;99.90;;;;;;5011059;28;20187;-68
2021/01/20 11:04:46;;;;;;;3.10;2.80;;;7.10;99.90;;;;;;5010930;28;20424;-68
2021/01/20 11:07:12;;;;;;;3.13;2.57;;;7.00;99.90;;;;;;5010345;28;20175;-69
2021/01/20 11:09:38;;;;;;;5.00;3.53;;;6.90;99.90;;;;;;5010551;28;20297;-68
2021/01/20 11:12:04;;;;;;;4.37;3.97;;;6.90;99.90;;;;;;5010459;28;20483;-68
2021/01/20 11:14:29;;;;;;;6.00;3.60;;;6.90;99.90;;;;;;5009775;28;20761;-68
2021/01/20 11:16:56;;;;;;;3.57;3.27;;;6.70;99.90;;;;;;5007354;28;20696;-71
2021/01/20 11:19:21;;;;;;;5.50;3.50;;;6.50;99.90;;;;;;5010252;28;20254;-68
2021/01/20 11:21:49;;;;;;;3.10;2.80;;;6.50;99.90;;;;;;5009166;28;20481;-69
2021/01/20 11:24:18;;;;;;;5.20;3.67;;;6.50;99.90;;;;;;5009134;28;20190;-68
2021/01/20 11:26:46;;;;;;;8.70;3.67;;;6.40;99.90;;;;;;5009536;28;20813;-68
2021/01/20 11:29:13;;;;;;;6.47;3.67;;;6.30;99.90;;;;;;5009570;28;20519;-68
2021/01/20 11:31:38;;;;;;;6.63;4.00;;;6.30;99.90;;;;;;4991914;28;20462;-68
2021/01/20 11:34:04;;;;;;;5.63;3.57;;;6.30;99.90;;;;;;5009839;28;20962;-70
2021/01/20 11:36:29;;;;;;;7.23;3.47;;;6.30;99.90;;;;;;5009428;28;20182;-68
2021/01/20 11:38:55;;;;;;;10.53;4.30;;;6.30;99.90;;;;;;5009806;28;20198;-67
2021/01/20 11:41:20;;;;;;;7.13;3.30;;;6.30;99.90;;;;;;5009689;28;20732;-67
2021/01/20 11:43:47;;;;;;;5.90;3.53;;;6.40;99.90;;;;;;5008991;28;20183;-68
2021/01/20 11:46:13;;;;;;;8.23;3.53;;;6.40;99.90;;;;;;5006854;28;20185;-67
2021/01/20 11:48:39;;;;;;;7.63;3.87;;;6.40;99.90;;;;;;5009608;28;21112;-68
2021/01/20 11:51:05;;;;;;;9.97;4.00;;;6.30;99.90;;;;;;5009322;28;20815;-68
2021/01/20 11:53:30;;;;;;;7.90;3.43;;;6.40;99.90;;;;;;4991491;28;20183;-68
2021/01/20 11:55:56;;;;;;;11.10;4.30;;;6.60;99.90;;;;;;5008684;28;20194;-68
2021/01/20 11:58:21;;;;;;;4.80;3.30;;;6.70;99.90;;;;;;5008682;28;20198;-68
2021/01/20 12:00:47;;;;;;;6.30;4.47;;;6.80;99.90;;;;;;5007838;28;20277;-70
2021/01/20 12:03:12;;;;;;;7.87;3.73;;;7.00;99.90;;;;;;5008792;28;20236;-68
2021/01/20 12:05:38;;;;;;;6.37;4.60;;;7.20;99.90;;;;;;5007680;28;20170;-68
2021/01/20 12:08:04;;;;;;;4.60;4.03;;;7.30;99.90;;;;;;5008320;28;20349;-68
2021/01/20 12:10:29;;;;;;;7.07;5.00;;;7.50;99.90;;;;;;5009023;28;20191;-68
2021/01/20 12:12:55;;;;;;;8.23;4.67;;;7.40;99.90;;;;;;5008632;28;20452;-68
2021/01/20 12:15:20;;;;;;;6.13;4.83;;;7.50;99.90;;;;;;5005860;28;20186;-68
2021/01/20 12:17:46;;;;;;;7.73;4.87;;;7.60;99.90;;;;;;5008174;28;20674;-68
2021/01/20 12:20:12;;;;;;;8.30;4.60;;;7.80;99.90;;;;;;5008492;28;20541;-68
2021/01/20 12:22:38;;;;;;;9.80;5.37;;;7.90;99.90;;;;;;5008659;28;20206;-69
2021/01/20 12:25:06;;;;;;;6.90;4.10;;;7.90;99.90;;;;;;5008286;28;20437;-68
2021/01/20 12:27:32;;;;;;;6.50;3.70;;;7.80;99.90;;;;;;5008559;28;20178;-68
2021/01/20 12:30:01;;;;;;;6.70;3.40;;;7.70;99.90;;;;;;5008546;28;20524;-68
2021/01/20 12:32:26;;;;;;;4.43;3.70;;;7.60;99.90;;;;;;5008237;28;21074;-69
2021/01/20 12:34:52;;;;;;;4.40;3.20;;;7.40;99.90;;;;;;5008687;28;20485;-68
2021/01/20 12:37:18;;;;;;;3.97;3.57;;;7.30;99.90;;;;;;5007818;28;20191;-68
2021/01/20 12:39:45;;;;;;;4.30;3.57;;;7.20;99.90;;;;;;5008205;28;20547;-68
2021/01/20 12:42:11;;;;;;;3.60;3.30;;;7.30;99.90;;;;;;5008310;28;20457;-70
2021/01/20 12:44:36;;;;;;;5.50;4.20;;;7.30;99.90;;;;;;5008094;28;20444;-68
2021/01/20 12:47:02;;;;;;;7.13;4.50;;;7.40;99.90;;;;;;5008011;28;20190;-69
2021/01/20 12:49:27;;;;;;;5.87;4.90;;;7.40;99.90;;;;;;5008408;28;20202;-68
2021/01/20 12:51:53;;;;;;;5.13;4.07;;;7.40;99.90;;;;;;4990336;28;20201;-68
2021/01/20 12:54:19;;;;;;;6.10;4.27;;;7.30;99.90;;;;;;5007594;28;20178;-69
2021/01/20 12:56:45;;;;;;;4.53;4.10;;;7.20;99.90;;;;;;5007908;28;20213;-68
2021/01/20 12:59:11;;;;;;;7.70;5.13;;;7.20;99.90;;;;;;4973718;28;20664;-67
2021/01/20 13:01:36;;;;;;;5.47;4.97;;;7.20;99.90;;;;;;5007289;28;20194;-69
2021/01/20 13:04:02;;;;;;;7.60;4.40;;;7.30;99.90;;;;;;5008256;28;20433;-68